Time;durP1;ratioP1;P1;durP2;ratioP2;P2;SDS_P1;SDS_P2;PMS_P1;PMS_P2;Temp;Humidity;BMP_temperature;BMP_pressure;BME280_temperature;BME280_humidity;BME280_pressure;Samples;Min_cycle;Max_cycle;Signal;HPM_P1;HPM_P2
2023/11/01 00:02:00;;;;;;;1.73;0.90;;;;;;;;;;5062939;28;20079;-73
2023/11/01 00:04:26;;;;;;;2.70;1.10;;;;;;;;;;5062736;28;20025;-77
2023/11/01 00:06:52;;;;;;;3.08;0.90;;;11.00;97.40;;;;;;5049739;28;20025;-77
2023/11/01 00:09:18;;;;;;;1.55;1.00;;;11.20;97.50;;;;;;5042621;28;20072;-77
2023/11/01 00:11:45;;;;;;;2.50;1.05;;;;;;;;;;5042806;28;20013;-76
2023/11/01 00:14:11;;;;;;;2.72;0.90;;;;;;;;;;5025062;28;20339;-76
2023/11/01 00:16:36;;;;;;;3.25;1.05;;;11.00;93.40;;;;;;5025047;28;20209;-78
2023/11/01 00:19:02;;;;;;;1.60;1.13;;;11.60;97.50;;;;;;5025000;28;20084;-73
2023/11/01 00:21:28;;;;;;;1.45;0.93;;;11.20;97.30;;;;;;5024855;28;20064;-80
2023/11/01 00:23:54;;;;;;;3.65;1.05;;;;;;;;;;5025005;28;20322;-79
2023/11/01 00:26:20;;;;;;;3.58;1.35;;;11.00;93.40;;;;;;5022732;28;20033;-72
2023/11/01 00:28:46;;;;;;;3.75;1.00;;;;;;;;;;5042246;28;20041;-72
2023/11/01 00:31:12;;;;;;;2.13;1.10;;;;;;;;;;5041753;28;20041;-72
2023/11/01 00:33:37;;;;;;;1.40;1.30;;;10.90;96.30;;;;;;5042250;28;20040;-74
2023/11/01 00:36:03;;;;;;;2.05;1.17;;;11.00;97.50;;;;;;5042593;28;20242;-75
2023/11/01 00:38:30;;;;;;;1.80;1.15;;;;;;;;;;5042439;28;20047;-75
2023/11/01 00:40:56;;;;;;;1.85;1.35;;;;;;;;;;5042142;28;20294;-74
2023/11/01 00:43:22;;;;;;;4.65;2.25;;;;;;;;;;5042258;28;20033;-75
2023/11/01 00:45:47;;;;;;;1.58;0.90;;;10.90;97.50;;;;;;5042191;28;20021;-75
2023/11/01 00:48:13;;;;;;;2.00;1.20;;;10.60;97.40;;;;;;5042054;28;20025;-75
2023/11/01 00:50:39;;;;;;;2.08;1.17;;;10.60;97.60;;;;;;5042001;28;20104;-74
2023/11/01 00:53:05;;;;;;;3.10;1.08;;;;;;;;;;5041971;28;20034;-73
2023/11/01 00:55:31;;;;;;;1.67;1.30;;;10.70;94.60;;;;;;5041848;28;20231;-73
2023/11/01 00:57:57;;;;;;;5.35;1.50;;;;;;;;;;5037268;28;20033;-71
2023/11/01 01:00:22;;;;;;;2.13;1.50;;;10.40;94.70;;;;;;5041874;28;20029;-73
2023/11/01 01:02:48;;;;;;;2.97;1.50;;;;;;;;;;5041666;28;20021;-73
2023/11/01 01:05:14;;;;;;;3.20;1.50;;;10.80;98.20;;;;;;5041721;28;20179;-74
2023/11/01 01:07:40;;;;;;;2.45;1.10;;;;;;;;;;5023972;28;20037;-73
2023/11/01 01:10:06;;;;;;;3.85;1.17;;;10.50;98.20;;;;;;5041605;28;20010;-74
2023/11/01 01:12:32;;;;;;;8.63;1.13;;;;;;;;;;5041685;28;20094;-75
2023/11/01 01:14:59;;;;;;;1.20;1.00;;;10.10;98.00;;;;;;5040743;28;20318;-73
2023/11/01 01:17:25;;;;;;;2.97;1.40;;;;;;;;;;5041746;28;20029;-75
2023/11/01 01:19:51;;;;;;;2.15;1.17;;;;;;;;;;5041541;28;20021;-73
2023/11/01 01:22:17;;;;;;;1.90;1.10;;;;;;;;;;5041520;28;20080;-73
2023/11/01 01:24:43;;;;;;;1.98;1.10;;;;;;;;;;5041721;28;20025;-74
2023/11/01 01:27:09;;;;;;;5.40;1.88;;;10.40;98.00;;;;;;5041426;28;20380;-74
2023/11/01 01:29:35;;;;;;;4.95;1.50;;;10.30;97.90;;;;;;5041696;28;20053;-74
2023/11/01 01:32:01;;;;;;;1.42;0.98;;;;;;;;;;5043159;28;20324;-75
2023/11/01 01:34:26;;;;;;;3.45;1.40;;;10.30;97.90;;;;;;5041365;28;20021;-74
2023/11/01 01:36:52;;;;;;;2.33;1.30;;;10.50;98.00;;;;;;5041297;28;20013;-75
2023/11/01 01:39:19;;;;;;;8.35;1.10;;;10.40;91.70;;;;;;5041030;28;20052;-74
2023/11/01 01:41:45;;;;;;;3.40;1.55;;;10.50;97.80;;;;;;5023390;28;20088;-73
2023/11/01 01:44:11;;;;;;;2.75;1.10;;;;;;;;;;5022309;28;20049;-74
2023/11/01 01:46:37;;;;;;;1.83;1.25;;;10.10;97.70;;;;;;5040931;28;20045;-74
2023/11/01 01:49:03;;;;;;;3.58;1.00;;;10.50;94.90;;;;;;5040767;28;20656;-75
2023/11/01 01:51:29;;;;;;;2.00;0.95;;;;;;;;;;5040521;28;20029;-74
2023/11/01 01:53:55;;;;;;;2.97;1.30;;;10.10;97.60;;;;;;5023077;28;20025;-74
2023/11/01 01:56:21;;;;;;;1.35;1.00;;;;;;;;;;5040651;28;20025;-73
2023/11/01 01:58:50;;;;;;;0.85;0.75;;;10.40;97.70;;;;;;5040689;28;20017;-74
2023/11/01 02:01:18;;;;;;;2.88;1.27;;;10.20;93.80;;;;;;5040847;28;20024;-73
2023/11/01 02:03:44;;;;;;;1.93;1.10;;;9.30;91.30;;;;;;5040652;28;20084;-75
2023/11/01 02:06:10;;;;;;;2.33;1.20;;;;;;;;;;5022867;28;20025;-74
2023/11/01 02:08:36;;;;;;;4.15;2.85;;;10.10;95.20;;;;;;5040395;28;20040;-74
2023/11/01 02:11:03;;;;;;;5.70;1.15;;;10.00;93.60;;;;;;5040785;28;20031;-73
2023/11/01 02:13:29;;;;;;;3.63;1.10;;;;;;;;;;5040473;28;20029;-75
2023/11/01 02:15:55;;;;;;;2.10;1.20;;;10.30;95.20;;;;;;5022633;28;20063;-74
2023/11/01 02:18:21;;;;;;;1.20;0.85;;;;;;;;;;5040325;28;20029;-74
2023/11/01 02:20:49;;;;;;;11.77;2.20;;;10.20;91.40;;;;;;5040324;28;20032;-74
2023/11/01 02:23:15;;;;;;;1.83;1.25;;;10.20;91.40;;;;;;5040400;28;20143;-72
2023/11/01 02:25:42;;;;;;;3.80;1.17;;;10.20;96.50;;;;;;5040411;28;20025;-71
2023/11/01 02:28:10;;;;;;;2.65;1.08;;;10.20;97.50;;;;;;5022384;28;20202;-73
2023/11/01 02:30:36;;;;;;;0.93;0.60;;;;;;;;;;5040009;28;20022;-72
2023/11/01 02:33:02;;;;;;;2.45;1.40;;;;;;;;;;5040228;28;20276;-73
2023/11/01 02:35:28;;;;;;;2.65;1.50;;;10.40;96.20;;;;;;5022261;28;20025;-72
2023/11/01 02:37:53;;;;;;;3.10;1.50;;;10.30;97.30;;;;;;5040122;28;20044;-71
2023/11/01 02:40:20;;;;;;;2.85;1.52;;;;;;;;;;5039958;28;20049;-74
2023/11/01 02:42:47;;;;;;;3.53;1.55;;;;;;;;;;5022277;28;20041;-75
2023/11/01 02:45:14;;;;;;;5.93;2.35;;;10.40;92.90;;;;;;5040021;28;20030;-75
2023/11/01 02:47:42;;;;;;;1.98;1.40;;;10.30;91.90;;;;;;5040047;28;20226;-74
2023/11/01 02:50:10;;;;;;;2.28;1.65;;;10.30;92.10;;;;;;5022349;28;20203;-75
2023/11/01 02:52:37;;;;;;;3.60;2.00;;;10.30;92.30;;;;;;5039985;28;20025;-73
2023/11/01 02:55:08;;;;;;;2.47;1.73;;;9.80;92.40;;;;;;5026526;28;20262;-75
2023/11/01 02:57:33;;;;;;;2.70;2.25;;;10.30;95.10;;;;;;5046586;28;20053;-75
2023/11/01 03:00:00;;;;;;;4.30;2.05;;;10.60;98.80;;;;;;5049531;28;20024;-76
2023/11/01 03:02:26;;;;;;;4.05;1.83;;;;;;;;;;5046675;28;20030;-74
2023/11/01 03:04:52;;;;;;;2.40;1.83;;;10.40;99.00;;;;;;5046528;28;20027;-75
2023/11/01 03:07:18;;;;;;;2.40;1.85;;;10.30;93.00;;;;;;5046516;28;20092;-74
2023/11/01 03:09:44;;;;;;;3.22;1.83;;;10.20;94.00;;;;;;5046374;28;20033;-73
2023/11/01 03:12:10;;;;;;;6.20;2.65;;;;;;;;;;5046589;28;20060;-73
2023/11/01 03:14:39;;;;;;;2.97;1.73;;;10.80;94.30;;;;;;5046545;28;20029;-74
2023/11/01 03:17:06;;;;;;;;;;;10.30;93.60;;;;;;5046861;28;20044;-74
2023/11/01 03:19:32;;;;;;;2.30;1.70;;;10.30;99.60;;;;;;5046533;28;19972;-73
2023/11/01 03:21:57;;;;;;;3.90;2.03;;;10.20;99.60;;;;;;5046366;28;20029;-74
2023/11/01 03:24:23;;;;;;;2.75;1.73;;;;;;;;;;5046420;28;20044;-76
2023/11/01 03:26:49;;;;;;;3.08;1.60;;;10.20;97.70;;;;;;5028431;28;20025;-74
2023/11/01 03:29:16;;;;;;;7.15;2.00;;;;;;;;;;5046204;28;20033;-74
2023/11/01 03:31:42;;;;;;;2.17;1.67;;;10.20;95.30;;;;;;5046156;28;20372;-73
2023/11/01 03:34:09;;;;;;;1.40;1.10;;;;;;;;;;5046073;28;20029;-72
2023/11/01 03:36:34;;;;;;;1.63;1.48;;;10.20;99.80;;;;;;5046239;28;20036;-72
2023/11/01 03:39:00;;;;;;;1.45;1.35;;;;;;;;;;5045843;28;20321;-72
2023/11/01 03:41:27;;;;;;;2.60;1.70;;;10.10;99.90;;;;;;5046038;28;20299;-72
2023/11/01 03:43:53;;;;;;;1.83;1.30;;;10.20;99.80;;;;;;5046118;28;20029;-72
2023/11/01 03:46:19;;;;;;;2.17;1.52;;;10.10;99.80;;;;;;5046000;28;20033;-73
2023/11/01 03:48:48;;;;;;;2.63;1.58;;;10.10;99.80;;;;;;5046082;28;20037;-72
2023/11/01 03:51:13;;;;;;;;;;;10.20;94.00;;;;;;5046490;28;20021;-72
2023/11/01 03:53:39;;;;;;;3.90;1.60;;;;;;;;;;5046074;28;19931;-72
2023/11/01 03:56:06;;;;;;;3.42;1.77;;;;;;;;;;5046021;28;20076;-72
2023/11/01 03:58:32;;;;;;;3.25;1.73;;;;;;;;;;5045947;28;20225;-73
2023/11/01 04:00:57;;;;;;;3.60;1.60;;;9.90;99.90;;;;;;5046024;28;20183;-73
2023/11/01 04:03:24;;;;;;;4.10;2.03;;;;;;;;;;5049049;28;20020;-72
2023/11/01 04:05:50;;;;;;;10.43;4.30;;;;;;;;;;5043616;28;20372;-73
2023/11/01 04:08:16;;;;;;;3.15;1.88;;;;;;;;;;5042476;28;20072;-72
2023/11/01 04:10:41;;;;;;;3.00;1.77;;;9.70;98.90;;;;;;5042646;28;20029;-73
2023/11/01 04:13:07;;;;;;;2.15;1.85;;;;;;;;;;5024919;28;20238;-72
2023/11/01 04:15:33;;;;;;;2.50;1.80;;;9.90;99.90;;;;;;5042266;28;20301;-75
2023/11/01 04:17:59;;;;;;;4.40;2.20;;;9.60;99.90;;;;;;5042399;28;20029;-75
2023/11/01 04:20:25;;;;;;;4.82;1.85;;;;;;;;;;5042420;28;20066;-75
2023/11/01 04:22:51;;;;;;;3.90;2.22;;;9.60;95.60;;;;;;5042276;28;20025;-74
2023/11/01 04:25:17;;;;;;;4.05;1.90;;;;;;;;;;5042378;28;20216;-73
2023/11/01 04:27:43;;;;;;;3.38;1.83;;;;;;;;;;5042048;28;20401;-74
2023/11/01 04:30:10;;;;;;;2.00;1.80;;;9.50;96.10;;;;;;5042094;28;20382;-75
2023/11/01 04:32:36;;;;;;;2.40;1.83;;;9.60;96.30;;;;;;5042192;28;20082;-73
2023/11/01 04:35:11;;;;;;;5.30;2.25;;;9.70;99.90;;;;;;5042135;28;20345;-74
2023/11/01 04:37:38;;;;;;;4.63;2.42;;;;;;;;;;5042539;28;20025;-78
2023/11/01 04:40:07;;;;;;;4.82;2.72;;;9.80;99.70;;;;;;5043856;28;20113;-76
2023/11/01 04:42:33;;;;;;;3.78;2.58;;;;;;;;;;5025973;28;20083;-73
2023/11/01 04:44:58;;;;;;;3.28;2.10;;;9.40;99.90;;;;;;5042024;28;20009;-74
2023/11/01 04:47:24;;;;;;;5.55;2.40;;;;;;;;;;5042019;28;20021;-74
2023/11/01 04:49:50;;;;;;;6.18;2.60;;;;;;;;;;5041996;28;20104;-75
2023/11/01 04:52:16;;;;;;;3.72;2.63;;;;;;;;;;5042102;28;20021;-76
2023/11/01 04:54:42;;;;;;;5.47;2.53;;;10.00;99.90;;;;;;5041998;28;20018;-76
2023/11/01 04:57:08;;;;;;;4.50;2.33;;;;;;;;;;5042187;28;20017;-73
2023/11/01 04:59:34;;;;;;;5.20;2.80;;;;;;;;;;5041784;28;20371;-74
2023/11/01 05:02:00;;;;;;;4.60;2.55;;;9.40;99.90;;;;;;5041847;28;20309;-72
2023/11/01 05:04:26;;;;;;;3.55;2.63;;;;;;;;;;5041763;28;20026;-74
2023/11/01 05:06:52;;;;;;;4.43;2.60;;;9.40;99.90;;;;;;5041591;28;20028;-74
2023/11/01 05:09:18;;;;;;;2.80;2.47;;;9.20;99.90;;;;;;5041383;28;20022;-73
2023/11/01 05:11:48;;;;;;;3.50;2.70;;;9.30;97.20;;;;;;5040830;28;20057;-73
2023/11/01 05:14:14;;;;;;;5.30;2.42;;;;;;;;;;5040642;28;20025;-72
2023/11/01 05:16:40;;;;;;;4.35;2.20;;;9.20;97.30;;;;;;5040520;28;20241;-73
2023/11/01 05:19:08;;;;;;;3.67;2.50;;;;;;;;;;5032965;28;20017;-73
2023/11/01 05:21:38;;;;;;;3.28;2.80;;;9.00;98.80;;;;;;5041313;28;20029;-73
2023/11/01 05:24:04;;;;;;;5.47;2.45;;;;;;;;;;5041261;28;20026;-76
2023/11/01 05:26:30;;;;;;;3.75;2.70;;;;;;;;;;5041387;28;20153;-78
2023/11/01 05:28:56;;;;;;;4.13;2.55;;;9.50;98.00;;;;;;5041079;28;20222;-76
2023/11/01 05:31:23;;;;;;;5.43;3.33;;;9.20;98.00;;;;;;5044247;28;20029;-72
2023/11/01 05:33:50;;;;;;;8.98;2.80;;;9.20;99.90;;;;;;5040935;28;20021;-73
2023/11/01 05:36:16;;;;;;;4.00;2.10;;;;;;;;;;5041040;28;20025;-74
2023/11/01 05:38:43;;;;;;;3.35;2.10;;;9.30;99.90;;;;;;5041111;28;20048;-74
2023/11/01 05:41:09;;;;;;;4.03;2.20;;;;;;;;;;5040783;28;20045;-76
2023/11/01 05:43:37;;;;;;;5.35;2.03;;;9.30;99.90;;;;;;5040834;28;20029;-73
2023/11/01 05:46:03;;;;;;;4.45;2.08;;;9.40;99.90;;;;;;5040823;28;20302;-73
2023/11/01 05:48:29;;;;;;;1.85;1.70;;;9.50;99.90;;;;;;5040754;28;20036;-73
2023/11/01 05:50:56;;;;;;;5.82;2.67;;;;;;;;;;5040665;28;20026;-73
2023/11/01 05:53:22;;;;;;;5.15;2.33;;;;;;;;;;5040698;28;20025;-73
2023/11/01 05:55:48;;;;;;;5.28;2.03;;;9.60;99.90;;;;;;5040741;28;20029;-74
2023/11/01 05:58:14;;;;;;;4.00;2.38;;;;;;;;;;5040651;28;20036;-74
2023/11/01 06:00:40;;;;;;;4.45;2.60;;;;;;;;;;5040555;28;20026;-74
2023/11/01 06:03:06;;;;;;;2.55;1.63;;;;;;;;;;5040412;28;20095;-73
2023/11/01 06:05:35;;;;;;;3.95;2.10;;;10.00;99.90;;;;;;5040631;28;20309;-73
2023/11/01 06:08:01;;;;;;;4.82;2.25;;;;;;;;;;5040393;28;20108;-73
2023/11/01 06:10:27;;;;;;;4.35;2.10;;;9.90;99.90;;;;;;5040481;28;20013;-73
2023/11/01 06:12:53;;;;;;;5.22;3.55;;;;;;;;;;5040606;28;20053;-74
2023/11/01 06:15:18;;;;;;;5.03;4.25;;;10.00;99.90;;;;;;5040393;28;20313;-74
2023/11/01 06:17:44;;;;;;;10.30;5.82;;;9.90;99.90;;;;;;5040508;28;20052;-74
2023/11/01 06:20:10;;;;;;;17.63;8.68;;;10.10;99.90;;;;;;5040441;28;20368;-73
2023/11/01 06:22:36;;;;;;;19.60;11.27;;;10.00;98.10;;;;;;5040440;28;20340;-73
2023/11/01 06:25:02;;;;;;;9.45;5.55;;;10.10;99.90;;;;;;5040678;28;20036;-74
2023/11/01 06:27:28;;;;;;;12.23;4.25;;;;;;;;;;5040180;28;20029;-75
2023/11/01 06:29:54;;;;;;;3.80;3.40;;;10.20;99.90;;;;;;5039859;28;20025;-74
2023/11/01 06:32:20;;;;;;;5.53;4.70;;;10.50;99.90;;;;;;5040476;28;20018;-75
2023/11/01 06:34:46;;;;;;;8.82;4.88;;;;;;;;;;5040453;28;20036;-73
2023/11/01 06:37:11;;;;;;;6.72;4.95;;;10.20;99.80;;;;;;5040161;28;20032;-74
2023/11/01 06:39:37;;;;;;;6.47;4.50;;;;;;;;;;5039966;28;20041;-73
2023/11/01 06:42:03;;;;;;;6.75;2.80;;;;;;;;;;5040133;28;20029;-73
2023/11/01 06:44:33;;;;;;;6.68;4.22;;;10.50;99.90;;;;;;5040031;28;20022;-74
2023/11/01 06:46:59;;;;;;;3.30;2.58;;;10.70;99.50;;;;;;5040025;28;20225;-73
2023/11/01 06:49:24;;;;;;;3.53;1.70;;;10.70;99.90;;;;;;5022292;28;20385;-75
2023/11/01 06:51:51;;;;;;;2.83;1.77;;;10.70;99.90;;;;;;5039974;28;20040;-75
2023/11/01 06:54:17;;;;;;;2.70;1.63;;;;;;;;;;5039931;28;20032;-74
2023/11/01 06:56:46;;;;;;;1.88;1.33;;;10.90;99.90;;;;;;5040004;28;20017;-74
2023/11/01 06:59:12;;;;;;;;;;;10.80;97.80;;;;;;5040223;28;20025;-71
2023/11/01 07:01:37;;;;;;;2.05;1.65;;;10.90;99.90;;;;;;5039759;28;19971;-72
2023/11/01 07:04:03;;;;;;;1.52;1.42;;;10.80;99.90;;;;;;5039893;28;20341;-72
2023/11/01 07:06:29;;;;;;;2.60;1.63;;;;;;;;;;5039611;28;20033;-74
2023/11/01 07:08:55;;;;;;;3.67;1.45;;;11.00;99.90;;;;;;5039632;28;20325;-73
2023/11/01 07:11:21;;;;;;;3.03;1.58;;;;;;;;;;5040188;28;20071;-75
2023/11/01 07:13:47;;;;;;;4.55;1.63;;;11.20;99.00;;;;;;5039619;28;20045;-74
2023/11/01 07:16:13;;;;;;;1.48;1.23;;;;;;;;;;5039559;28;20029;-74
2023/11/01 07:18:40;;;;;;;4.22;2.10;;;;;;;;;;5039620;28;20036;-71
2023/11/01 07:21:06;;;;;;;1.77;1.40;;;;;;;;;;5031471;28;20030;-72
2023/11/01 07:23:32;;;;;;;3.67;1.42;;;;;;;;;;5039925;28;20025;-74
2023/11/01 07:25:58;;;;;;;2.95;1.52;;;11.60;99.90;;;;;;5039505;28;20029;-72
2023/11/01 07:28:24;;;;;;;2.15;1.50;;;11.70;99.90;;;;;;5039635;28;20033;-74
2023/11/01 07:30:50;;;;;;;2.42;1.33;;;;;;;;;;5038803;28;20029;-73
2023/11/01 07:33:15;;;;;;;1.45;1.05;;;11.70;99.90;;;;;;5042192;28;20384;-73
2023/11/01 07:35:41;;;;;;;2.42;1.10;;;11.90;99.90;;;;;;5039455;28;20025;-75
2023/11/01 07:38:07;;;;;;;4.65;1.40;;;;;;;;;;5039467;28;20025;-74
2023/11/01 07:40:33;;;;;;;1.90;1.30;;;12.00;99.90;;;;;;5039120;28;20360;-73
2023/11/01 07:42:59;;;;;;;2.15;1.30;;;12.40;99.90;;;;;;5042991;28;20097;-72
2023/11/01 07:45:25;;;;;;;2.55;1.40;;;;;;;;;;5043340;28;20029;-73
2023/11/01 07:47:51;;;;;;;2.60;1.30;;;12.40;99.60;;;;;;5043078;28;20037;-73
2023/11/01 07:50:17;;;;;;;2.25;1.80;;;;;;;;;;5041592;28;20088;-72
2023/11/01 07:52:43;;;;;;;2.35;1.60;;;;;;;;;;5043141;28;20084;-73
2023/11/01 07:55:10;;;;;;;2.08;1.45;;;12.80;98.80;;;;;;5043053;28;20017;-72
2023/11/01 07:57:36;;;;;;;2.15;1.42;;;;;;;;;;5042859;28;20033;-73
2023/11/01 08:00:05;;;;;;;2.50;1.20;;;13.30;93.20;;;;;;5043087;28;20027;-74
2023/11/01 08:02:32;;;;;;;3.17;1.35;;;13.40;95.60;;;;;;5043182;28;20116;-74
2023/11/01 08:04:58;;;;;;;7.10;1.60;;;13.30;91.90;;;;;;5043059;28;20059;-75
2023/11/01 08:07:25;;;;;;;4.45;1.50;;;13.50;96.70;;;;;;5042712;28;20367;-76
2023/11/01 08:09:51;;;;;;;1.58;1.38;;;;;;;;;;5042703;28;20048;-75
2023/11/01 08:12:17;;;;;;;5.50;1.33;;;;;;;;;;5042784;28;20085;-70
2023/11/01 08:14:43;;;;;;;2.20;1.40;;;13.20;89.90;;;;;;5042957;28;20029;-73
2023/11/01 08:17:09;;;;;;;4.68;1.15;;;13.70;92.10;;;;;;5042670;28;20017;-72
2023/11/01 08:19:36;;;;;;;2.42;0.98;;;13.90;95.20;;;;;;5041812;28;20060;-72
2023/11/01 08:22:02;;;;;;;0.88;0.80;;;14.10;94.70;;;;;;5042590;28;20021;-72
2023/11/01 08:24:27;;;;;;;0.98;0.90;;;14.20;91.80;;;;;;5042607;28;20017;-71
2023/11/01 08:26:53;;;;;;;2.55;0.90;;;;;;;;;;5042625;28;20029;-71
2023/11/01 08:29:19;;;;;;;12.15;1.15;;;14.40;93.90;;;;;;5042469;28;20029;-71
2023/11/01 08:31:45;;;;;;;4.18;1.10;;;14.60;94.20;;;;;;5042537;28;20040;-72
2023/11/01 08:34:11;;;;;;;2.45;0.90;;;;;;;;;;5042532;28;20076;-70
2023/11/01 08:36:36;;;;;;;3.38;0.90;;;15.10;91.00;;;;;;5042293;28;20352;-73
2023/11/01 08:39:02;;;;;;;3.50;1.30;;;14.90;93.20;;;;;;5042128;28;20025;-74
2023/11/01 08:41:28;;;;;;;1.95;1.00;;;14.90;92.40;;;;;;5042120;28;20035;-74
2023/11/01 08:43:54;;;;;;;0.90;0.73;;;14.70;92.10;;;;;;5024398;28;20029;-74
2023/11/01 08:46:20;;;;;;;1.67;1.00;;;15.10;91.40;;;;;;5024584;28;20044;-73
2023/11/01 08:48:47;;;;;;;1.90;0.70;;;;;;;;;;5024483;28;20089;-74
2023/11/01 08:51:14;;;;;;;1.48;0.68;;;15.20;90.50;;;;;;5042290;28;20209;-74
2023/11/01 08:53:40;;;;;;;2.05;0.73;;;14.90;90.10;;;;;;5041327;28;20025;-75
2023/11/01 08:56:07;;;;;;;0.60;0.60;;;;;;;;;;5042243;28;20021;-72
2023/11/01 08:58:33;;;;;;;3.53;1.17;;;15.20;88.70;;;;;;5042052;28;20033;-74
2023/11/01 09:00:59;;;;;;;2.40;1.45;;;15.20;89.00;;;;;;5041927;28;20310;-74
2023/11/01 09:03:25;;;;;;;2.72;1.42;;;15.30;89.50;;;;;;5041773;28;20033;-74
2023/11/01 09:05:54;;;;;;;2.17;1.25;;;15.60;88.80;;;;;;5041742;28;20215;-78
2023/11/01 09:08:20;;;;;;;2.00;1.17;;;15.60;86.40;;;;;;5021979;28;20104;-72
2023/11/01 09:10:45;;;;;;;1.55;1.08;;;15.70;89.10;;;;;;5041768;28;20261;-80
2023/11/01 09:13:12;;;;;;;1.13;1.02;;;15.50;88.20;;;;;;5032202;28;20367;-81
2023/11/01 09:15:38;;;;;;;2.50;1.05;;;15.70;81.00;;;;;;5035079;28;20044;-80
2023/11/01 09:18:05;;;;;;;1.70;1.20;;;15.80;87.60;;;;;;5041581;28;20302;-80
2023/11/01 09:20:31;;;;;;;2.95;1.20;;;;;;;;;;5023870;28;20030;-80
2023/11/01 09:22:58;;;;;;;1.38;1.13;;;;;;;;;;5020518;28;20368;-78
2023/11/01 09:25:25;;;;;;;2.30;1.10;;;;;;;;;;5027530;28;20107;-80
2023/11/01 09:27:51;;;;;;;2.95;1.20;;;;;;;;;;5021545;28;20037;-77
2023/11/01 09:30:17;;;;;;;2.97;1.20;;;;;;;;;;5038161;28;20029;-80
2023/11/01 09:32:43;;;;;;;1.73;1.08;;;;;;;;;;5041240;28;20222;-78
2023/11/01 09:35:11;;;;;;;3.88;1.27;;;;;;;;;;5040932;28;20017;-78
2023/11/01 09:37:37;;;;;;;3.55;1.00;;;;;;;;;;5021524;28;20084;-79
2023/11/01 09:40:04;;;;;;;2.72;1.15;;;15.90;76.80;;;;;;5041032;28;20095;-76
2023/11/01 09:42:30;;;;;;;2.10;1.20;;;;;;;;;;5037132;28;20065;-78
2023/11/01 09:44:57;;;;;;;2.75;1.58;;;15.70;76.10;;;;;;5027711;28;20030;-79
2023/11/01 09:47:27;;;;;;;1.42;1.00;;;15.90;87.60;;;;;;5003678;28;20034;-80
2023/11/01 09:49:56;;;;;;;2.33;0.88;;;15.90;76.50;;;;;;5021259;28;20030;-79
2023/11/01 09:52:23;;;;;;;1.75;0.80;;;;;;;;;;5019868;28;20053;-79
2023/11/01 09:54:49;;;;;;;2.97;1.00;;;16.10;86.60;;;;;;5003642;28;20030;-81
2023/11/01 09:57:17;;;;;;;1.95;0.90;;;16.50;85.10;;;;;;5021099;28;20024;-80
2023/11/01 09:59:47;;;;;;;1.67;0.80;;;17.10;82.60;;;;;;5024566;28;20032;-78
2023/11/01 10:02:13;;;;;;;1.02;0.85;;;;;;;;;;5031299;28;20028;-80
2023/11/01 10:04:39;;;;;;;0.80;0.73;;;;;;;;;;5040110;28;20032;-80
2023/11/01 10:07:06;;;;;;;3.28;0.90;;;17.30;80.10;;;;;;5023734;28;20026;-79
2023/11/01 10:09:33;;;;;;;2.47;0.70;;;17.50;79.20;;;;;;5020955;28;20053;-80
2023/11/01 10:11:58;;;;;;;0.93;0.55;;;17.60;78.00;;;;;;5027670;28;20348;-78
2023/11/01 10:14:28;;;;;;;2.22;1.00;;;17.50;77.30;;;;;;5061047;28;20039;-81
2023/11/01 10:16:56;;;;;;;1.83;0.80;;;17.50;67.00;;;;;;5018486;28;20029;-80
2023/11/01 10:19:22;;;;;;;3.60;0.50;;;;;;;;;;5023090;28;20040;-79
2023/11/01 10:21:48;;;;;;;0.90;0.57;;;;;;;;;;5040316;28;20009;-79
2023/11/01 10:24:14;;;;;;;1.20;0.57;;;;;;;;;;5040306;28;20079;-80
2023/11/01 10:26:40;;;;;;;0.70;0.60;;;;;;;;;;5040213;28;20029;-80
2023/11/01 10:29:06;;;;;;;0.70;0.50;;;;;;;;;;5022475;28;20112;-79
2023/11/01 10:31:32;;;;;;;1.13;0.40;;;;;;;;;;5038538;28;20385;-79
2023/11/01 10:33:58;;;;;;;2.35;0.70;;;18.00;72.70;;;;;;5040123;28;20029;-78
2023/11/01 10:36:24;;;;;;;4.40;0.75;;;;;;;;;;5022393;28;20025;-81
2023/11/01 10:38:51;;;;;;;1.08;0.30;;;17.90;71.80;;;;;;5022114;28;20021;-78
2023/11/01 10:41:18;;;;;;;0.73;0.35;;;17.80;61.60;;;;;;5038524;28;20037;-81
2023/11/01 10:43:44;;;;;;;1.88;0.30;;;;;;;;;;4996447;28;20031;-81
2023/11/01 10:46:10;;;;;;;0.57;0.50;;;18.00;67.40;;;;;;4999160;28;20246;-77
2023/11/01 10:48:37;;;;;;;4.47;0.60;;;;;;;;;;5011328;28;20045;-80
2023/11/01 10:51:04;;;;;;;0.45;0.45;;;17.90;71.20;;;;;;5020238;28;20057;-79
2023/11/01 10:53:37;;;;;;;0.40;0.30;;;17.50;61.00;;;;;;5020059;28;20033;-78
2023/11/01 10:56:04;;;;;;;2.45;1.02;;;17.70;62.60;;;;;;5018382;28;20103;-78
2023/11/01 10:58:33;;;;;;;1.08;0.80;;;16.80;61.80;;;;;;5019920;28;20033;-79
2023/11/01 11:01:08;;;;;;;0.73;0.40;;;16.60;73.10;;;;;;5006004;28;20050;-79
2023/11/01 11:04:01;;;;;;;0.22;0.22;;;16.30;61.90;;;;;;5000532;28;20103;-78
2023/11/01 11:06:35;;;;;;;1.08;0.25;;;16.30;74.50;;;;;;5000349;28;20018;-80
2023/11/01 11:09:21;;;;;;;2.47;0.32;;;;;;;;;;4982787;28;20048;-77
2023/11/01 11:12:24;;;;;;;1.65;0.40;;;16.90;65.00;;;;;;4984575;28;20060;-78
2023/11/01 11:14:53;;;;;;;4.00;0.40;;;17.10;72.40;;;;;;5000717;28;20089;-79
2023/11/01 11:17:20;;;;;;;1.30;0.32;;;17.40;70.80;;;;;;5014629;28;20321;-78
2023/11/01 11:20:12;;;;;;;0.20;0.10;;;17.60;69.80;;;;;;5043709;28;20067;-77
2023/11/01 11:23:02;;;;;;;0.85;0.32;;;17.40;58.50;;;;;;5044303;28;20025;-79
2023/11/01 11:25:37;;;;;;;0.30;0.30;;;17.10;61.50;;;;;;5026569;28;20031;-79
2023/11/01 11:28:06;;;;;;;1.85;0.50;;;17.10;69.40;;;;;;5044325;28;20091;-78
2023/11/01 11:30:44;;;;;;;1.30;0.50;;;17.70;69.10;;;;;;5027154;28;20096;-80
2023/11/01 11:33:14;;;;;;;0.63;0.38;;;17.30;69.00;;;;;;5026977;28;20040;-78
2023/11/01 11:35:41;;;;;;;1.17;0.60;;;17.30;69.30;;;;;;5026896;28;20021;-79
2023/11/01 11:38:34;;;;;;;0.20;0.15;;;17.40;68.30;;;;;;5043945;28;20076;-79
2023/11/01 11:41:15;;;;;;;0.35;0.25;;;17.90;68.30;;;;;;5043851;28;20050;-78
2023/11/01 11:44:03;;;;;;;0.30;0.30;;;18.40;56.00;;;;;;5044112;28;20025;-78
2023/11/01 11:46:32;;;;;;;2.83;1.73;;;18.40;66.10;;;;;;5043650;28;20022;-80
2023/11/01 11:49:01;;;;;;;1.75;1.48;;;18.50;65.80;;;;;;5039255;28;20103;-79
2023/11/01 11:51:29;;;;;;;2.42;1.33;;;18.70;66.00;;;;;;5043870;28;20205;-79
2023/11/01 11:53:55;;;;;;;2.15;0.95;;;18.20;65.80;;;;;;5043133;28;20041;-79
2023/11/01 11:56:21;;;;;;;2.95;1.10;;;17.50;65.90;;;;;;5043117;28;20132;-77
2023/11/01 11:58:47;;;;;;;3.85;1.95;;;;;;;;;;5042886;28;20025;-77
2023/11/01 12:01:26;;;;;;;1.90;1.10;;;16.90;68.70;;;;;;5024903;28;20642;-79
2023/11/01 12:03:55;;;;;;;2.40;1.20;;;16.80;69.90;;;;;;5042792;28;20310;-79
2023/11/01 12:06:20;;;;;;;3.28;0.85;;;16.90;70.20;;;;;;5042980;28;20041;-79
2023/11/01 12:08:46;;;;;;;1.30;0.70;;;17.10;70.40;;;;;;5039268;28;20053;-79
2023/11/01 12:11:12;;;;;;;2.03;0.60;;;17.30;69.60;;;;;;5041774;28;20090;-78
2023/11/01 12:13:50;;;;;;;1.67;0.85;;;17.30;69.20;;;;;;5042558;28;20336;-79
2023/11/01 12:16:29;;;;;;;0.75;0.55;;;17.90;69.60;;;;;;5042698;28;20022;-79
2023/11/01 12:19:21;;;;;;;1.55;0.47;;;17.90;59.80;;;;;;5020387;28;20348;-77
2023/11/01 12:21:52;;;;;;;1.05;0.70;;;18.20;56.50;;;;;;4985600;28;20041;-74
2023/11/01 12:24:20;;;;;;;2.83;0.60;;;18.30;63.90;;;;;;5012941;28;20210;-74
2023/11/01 12:27:04;;;;;;;1.05;0.60;;;18.50;56.40;;;;;;5012816;28;20022;-73
2023/11/01 12:29:54;;;;;;;0.80;0.80;;;19.50;56.00;;;;;;5002884;28;20081;-75
2023/11/01 12:32:27;;;;;;;0.93;0.93;;;21.50;52.50;;;;;;5001415;28;20026;-74
2023/11/01 12:34:53;;;;;;;0.77;0.77;;;23.60;47.60;;;;;;5006834;28;20018;-74
2023/11/01 12:37:23;;;;;;;0.95;0.70;;;25.70;44.00;;;;;;5002714;28;20022;-74
2023/11/01 12:40:10;;;;;;;0.95;0.70;;;28.20;40.40;;;;;;5011087;28;20060;-73
2023/11/01 12:42:37;;;;;;;0.73;0.60;;;31.50;36.20;;;;;;5024113;28;20033;-74
2023/11/01 12:45:04;;;;;;;0.80;0.80;;;34.60;33.90;;;;;;5042242;28;20037;-74
2023/11/01 12:47:44;;;;;;;0.68;0.68;;;36.90;31.90;;;;;;5041891;28;20471;-75
2023/11/01 12:50:12;;;;;;;1.42;0.77;;;38.00;28.70;;;;;;5024131;28;20229;-74
2023/11/01 12:52:39;;;;;;;2.85;0.50;;;32.40;30.40;;;;;;5041847;28;20022;-74
2023/11/01 12:55:08;;;;;;;0.35;0.30;;;29.70;35.20;;;;;;5041987;28;20021;-74
2023/11/01 12:57:38;;;;;;;1.48;0.70;;;30.30;42.40;;;;;;5041898;28;20086;-74
2023/11/01 13:00:05;;;;;;;0.80;0.77;;;32.70;33.10;;;;;;5041787;28;20389;-75
2023/11/01 13:02:31;;;;;;;0.87;0.50;;;33.10;32.70;;;;;;5041665;28;20315;-75
2023/11/01 13:04:57;;;;;;;3.25;0.80;;;31.40;34.60;;;;;;5041665;28;20101;-76
2023/11/01 13:07:24;;;;;;;0.77;0.60;;;29.90;35.30;;;;;;5041703;28;20026;-78
2023/11/01 13:09:49;;;;;;;1.83;0.60;;;28.50;38.70;;;;;;5041400;28;20021;-80
2023/11/01 13:12:16;;;;;;;0.40;0.30;;;27.00;40.20;;;;;;5039316;28;20128;-83
2023/11/01 13:14:41;;;;;;;1.08;0.40;;;25.70;43.30;;;;;;5037877;28;20037;-79
2023/11/01 13:17:08;;;;;;;0.50;0.47;;;25.10;44.40;;;;;;5041744;28;20081;-77
2023/11/01 13:19:34;;;;;;;1.17;1.08;;;25.60;45.20;;;;;;5041285;28;20048;-76
2023/11/01 13:22:00;;;;;;;0.88;0.63;;;25.60;37.30;;;;;;5041095;28;20028;-76
2023/11/01 13:24:26;;;;;;;0.35;0.30;;;26.90;37.30;;;;;;5039878;28;20034;-76
2023/11/01 13:26:51;;;;;;;1.08;0.60;;;28.40;40.20;;;;;;5039289;28;20063;-77